sensor_id;sensor_type;location;lat;lon;timestamp;pressure;altitude;pressure_sealevel;temperature;humidity
13765;BME280;6953;48.810;9.204;2024-01-27T00:00:17;100408.34;;;4.17;97.48
13765;BME280;6953;48.810;9.204;2024-01-27T00:02:43;100519.19;;;4.64;97.94
13765;BME280;6953;48.810;9.204;2024-01-27T00:05:08;100555.59;;;4.58;98.86
13765;BME280;6953;48.810;9.204;2024-01-27T00:07:33;100520.94;;;4.56;99.15
13765;BME280;6953;48.810;9.204;2024-01-27T00:09:59;100520.06;;;4.59;99.89
13765;BME280;6953;48.810;9.204;2024-01-27T00:12:25;100519.19;;;4.64;100.00
13765;BME280;6953;48.810;9.204;2024-01-27T00:14:50;100374.59;;;3.74;100.00
13765;BME280;6953;48.810;9.204;2024-01-27T00:17:16;100520.94;;;4.71;99.70
13765;BME280;6953;48.810;9.204;2024-01-27T00:19:41;100541.75;;;4.67;100.00
13765;BME280;6953;48.810;9.204;2024-01-27T00:22:07;100572.91;;;4.65;100.00
13765;BME280;6953;48.810;9.204;2024-01-27T00:24:33;100226.59;;;2.80;100.00
13765;BME280;6953;48.810;9.204;2024-01-27T00:27:00;100293.16;;;3.06;99.81
13765;BME280;6953;48.810;9.204;2024-01-27T00:29:25;100535.63;;;4.32;100.00
13765;BME280;6953;48.810;9.204;2024-01-27T00:31:50;100529.56;;;4.16;100.00
13765;BME280;6953;48.810;9.204;2024-01-27T00:34:16;100467.16;;;3.76;100.00
13765;BME280;6953;48.810;9.204;2024-01-27T00:36:41;100540.81;;;4.17;100.00
13765;BME280;6953;48.810;9.204;2024-01-27T00:39:08;100294.78;;;2.71;100.00
13765;BME280;6953;48.810;9.204;2024-01-27T00:41:33;100446.34;;;3.54;100.00
13765;BME280;6953;48.810;9.204;2024-01-27T00:43:59;100546.81;;;4.03;100.00
13765;BME280;6953;48.810;9.204;2024-01-27T00:46:24;100536.41;;;3.89;100.00
13765;BME280;6953;48.810;9.204;2024-01-27T00:48:49;100257.44;;;2.21;100.00
13765;BME280;6953;48.810;9.204;2024-01-27T00:51:14;100272.09;;;2.22;100.00
13765;BME280;6953;48.810;9.204;2024-01-27T00:53:40;100274.63;;;2.12;100.00
13765;BME280;6953;48.810;9.204;2024-01-27T00:56:06;100555.34;;;3.63;100.00
13765;BME280;6953;48.810;9.204;2024-01-27T00:58:31;100605.50;;;3.62;100.00
13765;BME280;6953;48.810;9.204;2024-01-27T01:00:57;100492.91;;;3.22;100.00
13765;BME280;6953;48.810;9.204;2024-01-27T01:03:23;100601.97;;;3.52;100.00
13765;BME280;6953;48.810;9.204;2024-01-27T01:05:48;100551.81;;;3.44;100.00
13765;BME280;6953;48.810;9.204;2024-01-27T01:08:14;100558.66;;;3.36;100.00
13765;BME280;6953;48.810;9.204;2024-01-27T01:10:39;100458.06;;;2.76;100.00
13765;BME280;6953;48.810;9.204;2024-01-27T01:13:04;100509.19;;;3.06;100.00
13765;BME280;6953;48.810;9.204;2024-01-27T01:15:30;100565.56;;;3.33;100.00
13765;BME280;6953;48.810;9.204;2024-01-27T01:17:55;100521.34;;;3.10;100.00
13765;BME280;6953;48.810;9.204;2024-01-27T01:20:20;100269.22;;;1.76;100.00
13765;BME280;6953;48.810;9.204;2024-01-27T01:22:45;100447.72;;;2.83;100.00
13765;BME280;6953;48.810;9.204;2024-01-27T01:25:11;100574.38;;;3.63;100.00
13765;BME280;6953;48.810;9.204;2024-01-27T01:27:36;100568.38;;;3.72;100.00
13765;BME280;6953;48.810;9.204;2024-01-27T01:30:01;100569.25;;;3.78;100.00
13765;BME280;6953;48.810;9.204;2024-01-27T01:32:27;100565.78;;;3.79;100.00
13765;BME280;6953;48.810;9.204;2024-01-27T01:34:52;100572.72;;;3.80;100.00
13765;BME280;6953;48.810;9.204;2024-01-27T01:37:17;100565.78;;;3.76;100.00
13765;BME280;6953;48.810;9.204;2024-01-27T01:39:42;100567.50;;;3.73;100.00
13765;BME280;6953;48.810;9.204;2024-01-27T01:42:08;100520.50;;;3.19;100.00
13765;BME280;6953;48.810;9.204;2024-01-27T01:44:33;100567.41;;;3.58;100.00
13765;BME280;6953;48.810;9.204;2024-01-27T01:46:58;100572.56;;;3.44;100.00
13765;BME280;6953;48.810;9.204;2024-01-27T01:49:24;100317.59;;;1.83;100.00
13765;BME280;6953;48.810;9.204;2024-01-27T01:51:49;100331.38;;;1.82;100.00
13765;BME280;6953;48.810;9.204;2024-01-27T01:54:15;100294.06;;;1.56;100.00
13765;BME280;6953;48.810;9.204;2024-01-27T01:56:42;100586.91;;;2.96;100.00
13765;BME280;6953;48.810;9.204;2024-01-27T01:59:07;100578.28;;;3.00;100.00
13765;BME280;6953;48.810;9.204;2024-01-27T02:01:33;100249.63;;;1.00;100.00
13765;BME280;6953;48.810;9.204;2024-01-27T02:03:58;100585.13;;;2.85;100.00
13765;BME280;6953;48.810;9.204;2024-01-27T02:06:24;100585.69;;;2.55;100.00
13765;BME280;6953;48.810;9.204;2024-01-27T02:08:50;100512.97;;;2.31;100.00
13765;BME280;6953;48.810;9.204;2024-01-27T02:11:16;100598.81;;;2.72;100.00
13765;BME280;6953;48.810;9.204;2024-01-27T02:13:41;100576.16;;;2.50;100.00
13765;BME280;6953;48.810;9.204;2024-01-27T02:16:08;100574.38;;;2.44;100.00
13765;BME280;6953;48.810;9.204;2024-01-27T02:18:33;100305.38;;;0.81;100.00
13765;BME280;6953;48.810;9.204;2024-01-27T02:20:59;100487.41;;;1.80;100.00
13765;BME280;6953;48.810;9.204;2024-01-27T02:23:24;100654.75;;;2.50;100.00
13765;BME280;6953;48.810;9.204;2024-01-27T02:25:49;100660.78;;;2.49;100.00
13765;BME280;6953;48.810;9.204;2024-01-27T02:28:16;100517.69;;;1.87;100.00
13765;BME280;6953;48.810;9.204;2024-01-27T02:30:41;100623.69;;;2.55;100.00
13765;BME280;6953;48.810;9.204;2024-01-27T02:33:06;100536.06;;;2.10;100.00
13765;BME280;6953;48.810;9.204;2024-01-27T02:35:32;100318.16;;;0.72;100.00
13765;BME280;6953;48.810;9.204;2024-01-27T02:37:57;100504.69;;;1.81;100.00
13765;BME280;6953;48.810;9.204;2024-01-27T02:40:22;100580.16;;;2.19;100.00
13765;BME280;6953;48.810;9.204;2024-01-27T02:42:48;100647.78;;;2.48;100.00
13765;BME280;6953;48.810;9.204;2024-01-27T02:45:13;100640.19;;;2.64;100.00
13765;BME280;6953;48.810;9.204;2024-01-27T02:47:38;100595.91;;;2.39;100.00
13765;BME280;6953;48.810;9.204;2024-01-27T02:50:04;100326.06;;;0.84;100.00
13765;BME280;6953;48.810;9.204;2024-01-27T02:52:32;100594.97;;;2.35;100.00
13765;BME280;6953;48.810;9.204;2024-01-27T02:54:57;100469.75;;;1.43;100.00
13765;BME280;6953;48.810;9.204;2024-01-27T02:57:22;100378.75;;;0.97;100.00
13765;BME280;6953;48.810;9.204;2024-01-27T02:59:48;100639.13;;;2.46;100.00
13765;BME280;6953;48.810;9.204;2024-01-27T03:02:13;100625.69;;;2.04;100.00
13765;BME280;6953;48.810;9.204;2024-01-27T03:04:39;100653.81;;;2.44;100.00
13765;BME280;6953;48.810;9.204;2024-01-27T03:07:04;100594.66;;;2.04;100.00
13765;BME280;6953;48.810;9.204;2024-01-27T03:09:30;100652.13;;;2.47;100.00
13765;BME280;6953;48.810;9.204;2024-01-27T03:11:56;100580.13;;;2.16;100.00
13765;BME280;6953;48.810;9.204;2024-01-27T03:14:21;100402.31;;;1.20;100.00
13765;BME280;6953;48.810;9.204;2024-01-27T03:16:46;100699.00;;;2.71;100.00
13765;BME280;6953;48.810;9.204;2024-01-27T03:19:12;100352.13;;;1.02;100.00
13765;BME280;6953;48.810;9.204;2024-01-27T03:21:37;100378.91;;;1.11;100.00
13765;BME280;6953;48.810;9.204;2024-01-27T03:24:03;100289.56;;;0.56;100.00
13765;BME280;6953;48.810;9.204;2024-01-27T03:26:28;100326.84;;;0.76;100.00
13765;BME280;6953;48.810;9.204;2024-01-27T03:28:53;100614.88;;;2.39;100.00
13765;BME280;6953;48.810;9.204;2024-01-27T03:31:19;100551.41;;;1.94;100.00
13765;BME280;6953;48.810;9.204;2024-01-27T03:33:44;100660.88;;;2.60;100.00
13765;BME280;6953;48.810;9.204;2024-01-27T03:36:10;100665.28;;;2.68;100.00
13765;BME280;6953;48.810;9.204;2024-01-27T03:38:37;100581.81;;;2.13;100.00
13765;BME280;6953;48.810;9.204;2024-01-27T03:41:03;100659.19;;;2.62;100.00
13765;BME280;6953;48.810;9.204;2024-01-27T03:43:29;100666.81;;;2.48;100.00
13765;BME280;6953;48.810;9.204;2024-01-27T03:45:55;100651.38;;;2.60;100.00
13765;BME280;6953;48.810;9.204;2024-01-27T03:48:21;100687.81;;;2.77;100.00
13765;BME280;6953;48.810;9.204;2024-01-27T03:50:46;100686.94;;;2.76;100.00
13765;BME280;6953;48.810;9.204;2024-01-27T03:53:11;100684.34;;;2.73;100.00
13765;BME280;6953;48.810;9.204;2024-01-27T03:55:36;100397.81;;;1.07;100.00
13765;BME280;6953;48.810;9.204;2024-01-27T03:58:02;100325.78;;;0.62;100.00
13765;BME280;6953;48.810;9.204;2024-01-27T04:00:27;100600.81;;;2.15;100.00
13765;BME280;6953;48.810;9.204;2024-01-27T04:02:54;100729.25;;;2.74;100.00
13765;BME280;6953;48.810;9.204;2024-01-27T04:05:20;100696.38;;;2.70;100.00
13765;BME280;6953;48.810;9.204;2024-01-27T04:07:45;100724.84;;;2.67;100.00
13765;BME280;6953;48.810;9.204;2024-01-27T04:10:10;100426.28;;;1.09;100.00
13765;BME280;6953;48.810;9.204;2024-01-27T04:12:36;100612.13;;;2.21;100.00
13765;BME280;6953;48.810;9.204;2024-01-27T04:15:01;100735.09;;;2.55;100.00
13765;BME280;6953;48.810;9.204;2024-01-27T04:17:27;100682.22;;;2.39;100.00
13765;BME280;6953;48.810;9.204;2024-01-27T04:19:52;100527.44;;;1.37;100.00
13765;BME280;6953;48.810;9.204;2024-01-27T04:22:17;100662.91;;;2.10;100.00
13765;BME280;6953;48.810;9.204;2024-01-27T04:24:42;100692.94;;;2.00;100.00
13765;BME280;6953;48.810;9.204;2024-01-27T04:27:08;100668.56;;;1.81;100.00
13765;BME280;6953;48.810;9.204;2024-01-27T04:29:36;100700.72;;;2.00;100.00
13765;BME280;6953;48.810;9.204;2024-01-27T04:32:01;100701.47;;;1.90;100.00
13765;BME280;6953;48.810;9.204;2024-01-27T04:34:26;100652.56;;;1.48;100.00
13765;BME280;6953;48.810;9.204;2024-01-27T04:36:52;100589.03;;;1.06;100.00
13765;BME280;6953;48.810;9.204;2024-01-27T04:39:17;100481.25;;;0.40;100.00
13765;BME280;6953;48.810;9.204;2024-01-27T04:41:43;100681.09;;;1.53;100.00
13765;BME280;6953;48.810;9.204;2024-01-27T04:44:09;100709.81;;;1.74;100.00
13765;BME280;6953;48.810;9.204;2024-01-27T04:46:34;100734.00;;;1.73;100.00
13765;BME280;6953;48.810;9.204;2024-01-27T04:48:59;100736.47;;;1.67;100.00
13765;BME280;6953;48.810;9.204;2024-01-27T04:51:24;100617.56;;;1.13;100.00
13765;BME280;6953;48.810;9.204;2024-01-27T04:53:50;100713.16;;;1.65;100.00
13765;BME280;6953;48.810;9.204;2024-01-27T04:56:15;100704.44;;;1.57;100.00
13765;BME280;6953;48.810;9.204;2024-01-27T04:58:40;100458.34;;;0.10;100.00
13765;BME280;6953;48.810;9.204;2024-01-27T05:01:06;100198.84;;;-1.41;100.00
13765;BME280;6953;48.810;9.204;2024-01-27T05:03:31;100720.81;;;1.58;100.00
13765;BME280;6953;48.810;9.204;2024-01-27T05:05:57;100679.16;;;1.38;100.00
13765;BME280;6953;48.810;9.204;2024-01-27T05:08:22;100625.31;;;1.13;100.00
13765;BME280;6953;48.810;9.204;2024-01-27T05:10:47;100592.34;;;0.98;100.00
13765;BME280;6953;48.810;9.204;2024-01-27T05:13:13;100415.16;;;-0.04;100.00
13765;BME280;6953;48.810;9.204;2024-01-27T05:15:38;100635.78;;;1.22;100.00
13765;BME280;6953;48.810;9.204;2024-01-27T05:18:04;100692.34;;;1.56;100.00
13765;BME280;6953;48.810;9.204;2024-01-27T05:20:29;100410.72;;;-0.12;100.00
13765;BME280;6953;48.810;9.204;2024-01-27T05:22:55;100652.13;;;1.20;100.00
13765;BME280;6953;48.810;9.204;2024-01-27T05:25:20;100755.38;;;1.63;100.00
13765;BME280;6953;48.810;9.204;2024-01-27T05:27:45;100364.53;;;-0.48;100.00
13765;BME280;6953;48.810;9.204;2024-01-27T05:30:11;100425.28;;;-0.13;100.00
13765;BME280;6953;48.810;9.204;2024-01-27T05:32:36;100722.38;;;1.47;100.00
13765;BME280;6953;48.810;9.204;2024-01-27T05:35:02;100732.56;;;1.38;100.00
13765;BME280;6953;48.810;9.204;2024-01-27T05:37:28;100714.38;;;1.32;100.00
13765;BME280;6953;48.810;9.204;2024-01-27T05:39:53;100569.19;;;0.50;100.00
13765;BME280;6953;48.810;9.204;2024-01-27T05:42:19;100657.75;;;0.95;100.00
13765;BME280;6953;48.810;9.204;2024-01-27T05:44:44;100752.31;;;1.34;100.00
13765;BME280;6953;48.810;9.204;2024-01-27T05:47:10;100437.16;;;-0.24;100.00
13765;BME280;6953;48.810;9.204;2024-01-27T05:49:36;100725.81;;;1.47;100.00
13765;BME280;6953;48.810;9.204;2024-01-27T05:52:01;100723.31;;;1.52;100.00
13765;BME280;6953;48.810;9.204;2024-01-27T05:54:27;100441.00;;;0.00;100.00
13765;BME280;6953;48.810;9.204;2024-01-27T05:56:52;100425.34;;;-0.10;100.00
13765;BME280;6953;48.810;9.204;2024-01-27T05:59:17;100601.47;;;0.76;100.00
13765;BME280;6953;48.810;9.204;2024-01-27T06:01:42;100714.66;;;1.50;100.00
13765;BME280;6953;48.810;9.204;2024-01-27T06:04:10;100699.06;;;1.45;100.00
13765;BME280;6953;48.810;9.204;2024-01-27T06:06:40;100630.16;;;0.91;100.00
13765;BME280;6953;48.810;9.204;2024-01-27T06:09:07;100691.97;;;1.31;100.00
13765;BME280;6953;48.810;9.204;2024-01-27T06:11:36;100684.09;;;1.26;100.00
13765;BME280;6953;48.810;9.204;2024-01-27T06:14:02;100470.22;;;-0.02;100.00
13765;BME280;6953;48.810;9.204;2024-01-27T06:16:27;100761.22;;;1.50;100.00
13765;BME280;6953;48.810;9.204;2024-01-27T06:18:52;100738.78;;;1.49;100.00
13765;BME280;6953;48.810;9.204;2024-01-27T06:21:20;100739.63;;;1.49;100.00
13765;BME280;6953;48.810;9.204;2024-01-27T06:23:45;100734.28;;;1.39;100.00
13765;BME280;6953;48.810;9.204;2024-01-27T06:26:13;100771.44;;;1.42;100.00
13765;BME280;6953;48.810;9.204;2024-01-27T06:28:38;100755.88;;;1.39;100.00
13765;BME280;6953;48.810;9.204;2024-01-27T06:31:04;100780.00;;;1.40;100.00
13765;BME280;6953;48.810;9.204;2024-01-27T06:33:29;100753.19;;;1.35;100.00
13765;BME280;6953;48.810;9.204;2024-01-27T06:35:55;100753.06;;;1.27;100.00
13765;BME280;6953;48.810;9.204;2024-01-27T06:38:20;100745.91;;;1.11;100.00
13765;BME280;6953;48.810;9.204;2024-01-27T06:40:45;100788.16;;;1.15;100.00
13765;BME280;6953;48.810;9.204;2024-01-27T06:43:12;100685.59;;;0.64;100.00
13765;BME280;6953;48.810;9.204;2024-01-27T06:45:38;100705.56;;;0.72;100.00
13765;BME280;6953;48.810;9.204;2024-01-27T06:48:05;100727.22;;;0.79;100.00
13765;BME280;6953;48.810;9.204;2024-01-27T06:50:30;100790.34;;;0.93;100.00
13765;BME280;6953;48.810;9.204;2024-01-27T06:52:55;100510.47;;;-0.53;100.00
13765;BME280;6953;48.810;9.204;2024-01-27T06:55:21;100605.22;;;-0.43;100.00
13765;BME280;6953;48.810;9.204;2024-01-27T06:57:46;100755.72;;;0.83;100.00
13765;BME280;6953;48.810;9.204;2024-01-27T07:00:12;100708.63;;;0.52;100.00
13765;BME280;6953;48.810;9.204;2024-01-27T07:02:40;100769.41;;;0.79;100.00
13765;BME280;6953;48.810;9.204;2024-01-27T07:05:09;100473.75;;;-0.84;100.00
13765;BME280;6953;48.810;9.204;2024-01-27T07:07:35;100487.31;;;-0.93;100.00
13765;BME280;6953;48.810;9.204;2024-01-27T07:10:00;100806.69;;;0.92;100.00
13765;BME280;6953;48.810;9.204;2024-01-27T07:12:26;100483.59;;;-0.65;100.00
13765;BME280;6953;48.810;9.204;2024-01-27T07:14:52;100767.03;;;0.90;100.00
13765;BME280;6953;48.810;9.204;2024-01-27T07:17:17;100454.06;;;-0.82;100.00
13765;BME280;6953;48.810;9.204;2024-01-27T07:19:43;100741.06;;;0.84;100.00
13765;BME280;6953;48.810;9.204;2024-01-27T07:22:08;100699.25;;;0.57;100.00
13765;BME280;6953;48.810;9.204;2024-01-27T07:24:33;100724.25;;;0.58;100.00
13765;BME280;6953;48.810;9.204;2024-01-27T07:27:02;100775.03;;;1.03;100.00
13765;BME280;6953;48.810;9.204;2024-01-27T07:29:29;100748.75;;;0.79;100.00
13765;BME280;6953;48.810;9.204;2024-01-27T07:31:54;100775.16;;;1.09;100.00
13765;BME280;6953;48.810;9.204;2024-01-27T07:34:19;100609.06;;;0.20;100.00
13765;BME280;6953;48.810;9.204;2024-01-27T07:36:45;100778.84;;;1.24;100.00
13765;BME280;6953;48.810;9.204;2024-01-27T07:39:11;100766.94;;;1.34;100.00
13765;BME280;6953;48.810;9.204;2024-01-27T07:41:36;100817.03;;;1.39;100.00
13765;BME280;6953;48.810;9.204;2024-01-27T07:44:08;100487.97;;;-0.17;100.00
13765;BME280;6953;48.810;9.204;2024-01-27T07:46:35;100771.63;;;1.53;100.00
13765;BME280;6953;48.810;9.204;2024-01-27T07:49:01;100707.44;;;1.29;100.00
13765;BME280;6953;48.810;9.204;2024-01-27T07:51:26;100773.59;;;1.70;100.00
13765;BME280;6953;48.810;9.204;2024-01-27T07:53:51;100803.06;;;1.78;100.00
13765;BME280;6953;48.810;9.204;2024-01-27T07:56:17;100781.63;;;1.87;100.00
13765;BME280;6953;48.810;9.204;2024-01-27T07:58:42;100689.59;;;1.46;100.00
13765;BME280;6953;48.810;9.204;2024-01-27T08:01:08;100763.69;;;1.99;100.00
13765;BME280;6953;48.810;9.204;2024-01-27T08:03:33;100776.91;;;2.19;100.00
13765;BME280;6953;48.810;9.204;2024-01-27T08:06:04;100712.94;;;2.09;100.00
13765;BME280;6953;48.810;9.204;2024-01-27T08:08:35;100770.50;;;2.54;100.00
13765;BME280;6953;48.810;9.204;2024-01-27T08:11:00;100750.72;;;2.62;100.00
13765;BME280;6953;48.810;9.204;2024-01-27T08:13:25;100773.38;;;2.80;100.00
13765;BME280;6953;48.810;9.204;2024-01-27T08:15:50;100757.91;;;2.87;100.00
13765;BME280;6953;48.810;9.204;2024-01-27T08:18:16;100763.13;;;2.92;100.00
13765;BME280;6953;48.810;9.204;2024-01-27T08:20:41;100740.59;;;2.83;100.00
13765;BME280;6953;48.810;9.204;2024-01-27T08:23:06;100761.53;;;3.04;100.00
13765;BME280;6953;48.810;9.204;2024-01-27T08:25:33;100483.66;;;1.51;100.00
13765;BME280;6953;48.810;9.204;2024-01-27T08:27:58;100763.38;;;3.15;100.00
13765;BME280;6953;48.810;9.204;2024-01-27T08:30:24;100762.63;;;3.28;100.00
13765;BME280;6953;48.810;9.204;2024-01-27T08:32:49;100765.38;;;3.45;100.00
13765;BME280;6953;48.810;9.204;2024-01-27T08:35:14;100510.13;;;2.04;100.00
13765;BME280;6953;48.810;9.204;2024-01-27T08:37:40;100765.53;;;3.61;100.00
13765;BME280;6953;48.810;9.204;2024-01-27T08:40:06;100494.69;;;2.13;100.00
13765;BME280;6953;48.810;9.204;2024-01-27T08:42:31;100771.63;;;3.69;100.00
13765;BME280;6953;48.810;9.204;2024-01-27T08:44:57;100511.25;;;2.30;100.00
13765;BME280;6953;48.810;9.204;2024-01-27T08:47:22;100768.28;;;3.79;100.00
13765;BME280;6953;48.810;9.204;2024-01-27T08:49:47;100756.19;;;3.86;100.00
13765;BME280;6953;48.810;9.204;2024-01-27T08:52:13;100762.25;;;3.89;100.00
13765;BME280;6953;48.810;9.204;2024-01-27T08:54:38;100783.94;;;3.94;100.00
13765;BME280;6953;48.810;9.204;2024-01-27T08:57:03;100669.47;;;3.54;100.00
13765;BME280;6953;48.810;9.204;2024-01-27T08:59:29;100713.78;;;3.82;100.00
13765;BME280;6953;48.810;9.204;2024-01-27T09:01:54;100792.72;;;4.14;100.00
13765;BME280;6953;48.810;9.204;2024-01-27T09:04:19;100468.28;;;2.58;100.00
13765;BME280;6953;48.810;9.204;2024-01-27T09:06:45;100733.91;;;4.19;100.00
13765;BME280;6953;48.810;9.204;2024-01-27T09:09:10;100667.06;;;3.88;100.00
13765;BME280;6953;48.810;9.204;2024-01-27T09:11:37;100759.03;;;4.23;100.00
13765;BME280;6953;48.810;9.204;2024-01-27T09:14:02;100726.94;;;4.13;100.00
13765;BME280;6953;48.810;9.204;2024-01-27T09:16:30;100766.16;;;4.64;100.00
13765;BME280;6953;48.810;9.204;2024-01-27T09:18:55;100498.09;;;3.28;100.00
13765;BME280;6953;48.810;9.204;2024-01-27T09:21:21;100708.06;;;4.58;100.00
13765;BME280;6953;48.810;9.204;2024-01-27T09:23:53;100509.47;;;3.59;100.00
13765;BME280;6953;48.810;9.204;2024-01-27T09:26:20;100761.13;;;5.22;100.00
13765;BME280;6953;48.810;9.204;2024-01-27T09:28:48;100757.69;;;5.80;100.00
13765;BME280;6953;48.810;9.204;2024-01-27T09:31:21;100745.75;;;8.29;100.00
13765;BME280;6953;48.810;9.204;2024-01-27T09:33:52;100647.88;;;10.88;94.06
13765;BME280;6953;48.810;9.204;2024-01-27T09:36:19;100729.66;;;15.08;61.20
13765;BME280;6953;48.810;9.204;2024-01-27T09:38:46;100708.63;;;17.62;48.72
13765;BME280;6953;48.810;9.204;2024-01-27T09:41:13;100641.81;;;19.31;39.41
13765;BME280;6953;48.810;9.204;2024-01-27T09:43:44;100743.84;;;20.80;36.05
13765;BME280;6953;48.810;9.204;2024-01-27T09:46:14;100752.69;;;21.36;33.40
13765;BME280;6953;48.810;9.204;2024-01-27T09:48:40;100777.47;;;22.19;33.09
13765;BME280;6953;48.810;9.204;2024-01-27T09:51:08;100754.03;;;22.99;31.48
13765;BME280;6953;48.810;9.204;2024-01-27T09:53:34;100715.31;;;23.40;29.16
13765;BME280;6953;48.810;9.204;2024-01-27T09:56:01;100784.06;;;24.47;28.34
13765;BME280;6953;48.810;9.204;2024-01-27T09:58:30;100776.31;;;24.77;26.68
13765;BME280;6953;48.810;9.204;2024-01-27T10:00:57;100794.44;;;24.75;26.50
13765;BME280;6953;48.810;9.204;2024-01-27T10:03:24;100786.16;;;24.54;26.41
13765;BME280;6953;48.810;9.204;2024-01-27T10:05:52;100788.56;;;24.81;26.23
13765;BME280;6953;48.810;9.204;2024-01-27T10:08:18;100592.28;;;24.06;25.54
13765;BME280;6953;48.810;9.204;2024-01-27T10:10:43;100795.75;;;25.36;25.08
13765;BME280;6953;48.810;9.204;2024-01-27T10:13:10;100801.56;;;25.74;24.79
13765;BME280;6953;48.810;9.204;2024-01-27T10:15:36;100798.03;;;26.58;23.78
13765;BME280;6953;48.810;9.204;2024-01-27T10:18:06;100798.25;;;26.35;23.18
13765;BME280;6953;48.810;9.204;2024-01-27T10:20:32;100767.16;;;26.31;23.30
13765;BME280;6953;48.810;9.204;2024-01-27T10:22:58;100804.47;;;27.28;22.11
13765;BME280;6953;48.810;9.204;2024-01-27T10:25:23;100748.84;;;27.85;20.90
13765;BME280;6953;48.810;9.204;2024-01-27T10:27:48;100659.75;;;28.14;20.12
13765;BME280;6953;48.810;9.204;2024-01-27T10:30:17;100666.88;;;28.05;20.16
13765;BME280;6953;48.810;9.204;2024-01-27T10:32:43;100750.75;;;28.04;20.41
13765;BME280;6953;48.810;9.204;2024-01-27T10:35:09;100811.41;;;28.09;20.97
13765;BME280;6953;48.810;9.204;2024-01-27T10:37:34;100810.81;;;28.83;19.78
13765;BME280;6953;48.810;9.204;2024-01-27T10:40:04;100776.78;;;28.33;20.50
13765;BME280;6953;48.810;9.204;2024-01-27T10:42:30;100628.81;;;27.70;20.25
13765;BME280;6953;48.810;9.204;2024-01-27T10:44:58;100761.00;;;29.22;19.05
13765;BME280;6953;48.810;9.204;2024-01-27T10:47:26;100807.44;;;28.13;20.22
13765;BME280;6953;48.810;9.204;2024-01-27T10:49:54;100764.41;;;28.02;20.50
13765;BME280;6953;48.810;9.204;2024-01-27T10:52:20;100788.38;;;29.09;19.83
13765;BME280;6953;48.810;9.204;2024-01-27T10:54:48;100766.81;;;29.63;18.66
13765;BME280;6953;48.810;9.204;2024-01-27T10:57:15;100612.53;;;28.92;18.56
13765;BME280;6953;48.810;9.204;2024-01-27T10:59:41;100759.06;;;29.05;18.52
13765;BME280;6953;48.810;9.204;2024-01-27T11:02:11;100790.16;;;27.67;19.94
13765;BME280;6953;48.810;9.204;2024-01-27T11:04:38;100755.50;;;27.33;19.95
13765;BME280;6953;48.810;9.204;2024-01-27T11:07:05;100759.03;;;28.31;19.37
13765;BME280;6953;48.810;9.204;2024-01-27T11:09:32;100694.19;;;28.40;19.11
13765;BME280;6953;48.810;9.204;2024-01-27T11:12:01;100690.91;;;28.18;19.10
13765;BME280;6953;48.810;9.204;2024-01-27T11:14:26;100749.28;;;27.90;19.50
13765;BME280;6953;48.810;9.204;2024-01-27T11:16:56;100552.34;;;27.13;19.17
13765;BME280;6953;48.810;9.204;2024-01-27T11:19:22;100758.03;;;28.41;19.48
13765;BME280;6953;48.810;9.204;2024-01-27T11:21:48;100757.56;;;28.64;18.68
13765;BME280;6953;48.810;9.204;2024-01-27T11:24:17;100747.59;;;28.65;18.57
13765;BME280;6953;48.810;9.204;2024-01-27T11:26:43;100746.09;;;29.54;17.73
13765;BME280;6953;48.810;9.204;2024-01-27T11:29:09;100731.03;;;29.86;17.60
13765;BME280;6953;48.810;9.204;2024-01-27T11:35:05;100740.34;;;28.65;18.10
13765;BME280;6953;48.810;9.204;2024-01-27T11:40:52;100709.72;;;27.51;19.18
13765;BME280;6953;48.810;9.204;2024-01-27T11:43:17;100757.97;;;27.94;19.49
13765;BME280;6953;48.810;9.204;2024-01-27T11:45:43;100759.59;;;28.34;19.01
13765;BME280;6953;48.810;9.204;2024-01-27T11:48:08;100736.72;;;29.12;18.15
13765;BME280;6953;48.810;9.204;2024-01-27T11:50:34;100539.03;;;27.49;18.42
13765;BME280;6953;48.810;9.204;2024-01-27T11:53:00;100695.47;;;27.98;18.92
13765;BME280;6953;48.810;9.204;2024-01-27T11:55:25;100734.25;;;27.97;19.34
13765;BME280;6953;48.810;9.204;2024-01-27T11:57:50;100717.06;;;28.55;18.98
13765;BME280;6953;48.810;9.204;2024-01-27T12:00:16;100716.81;;;29.04;18.52
13765;BME280;6953;48.810;9.204;2024-01-27T12:02:42;100589.53;;;28.23;17.82
13765;BME280;6953;48.810;9.204;2024-01-27T12:05:10;100703.13;;;28.50;18.56
13765;BME280;6953;48.810;9.204;2024-01-27T12:07:37;100713.69;;;29.62;17.81
13765;BME280;6953;48.810;9.204;2024-01-27T12:10:03;100665.28;;;29.76;17.35
13765;BME280;6953;48.810;9.204;2024-01-27T12:12:28;100688.06;;;30.01;17.09
13765;BME280;6953;48.810;9.204;2024-01-27T12:14:53;100723.06;;;29.85;17.28
13765;BME280;6953;48.810;9.204;2024-01-27T12:17:19;100548.44;;;29.02;17.29
13765;BME280;6953;48.810;9.204;2024-01-27T12:19:46;100707.38;;;30.58;17.08
13765;BME280;6953;48.810;9.204;2024-01-27T12:22:25;100534.25;;;31.12;15.53
13765;BME280;6953;48.810;9.204;2024-01-27T12:24:56;100718.47;;;32.78;15.21
13765;BME280;6953;48.810;9.204;2024-01-27T12:27:22;100697.84;;;31.88;15.55
13765;BME280;6953;48.810;9.204;2024-01-27T12:29:49;100630.09;;;32.02;15.35
13765;BME280;6953;48.810;9.204;2024-01-27T12:32:17;100651.63;;;33.37;14.37
13765;BME280;6953;48.810;9.204;2024-01-27T12:34:43;100606.78;;;32.71;14.66
13765;BME280;6953;48.810;9.204;2024-01-27T12:37:11;100729.56;;;32.68;14.44
13765;BME280;6953;48.810;9.204;2024-01-27T12:39:37;100700.00;;;31.68;15.68
13765;BME280;6953;48.810;9.204;2024-01-27T12:42:03;100683.69;;;30.68;16.74
13765;BME280;6953;48.810;9.204;2024-01-27T12:44:29;100523.28;;;29.71;16.64
13765;BME280;6953;48.810;9.204;2024-01-27T12:46:54;100506.47;;;29.15;17.04
13765;BME280;6953;48.810;9.204;2024-01-27T12:49:19;100611.81;;;29.78;17.59
13765;BME280;6953;48.810;9.204;2024-01-27T12:51:45;100591.16;;;29.60;16.95
13765;BME280;6953;48.810;9.204;2024-01-27T12:54:12;100494.56;;;28.91;17.31
13765;BME280;6953;48.810;9.204;2024-01-27T12:56:37;100493.31;;;27.76;18.06
13765;BME280;6953;48.810;9.204;2024-01-27T12:59:03;100656.44;;;29.03;17.78